Time;durP1;ratioP1;P1;durP2;ratioP2;P2;SDS_P1;SDS_P2;PMS_P1;PMS_P2;Temp;Humidity;BMP_temperature;BMP_pressure;BME280_temperature;BME280_humidity;BME280_pressure;Samples;Min_cycle;Max_cycle;Signal;HPM_P1;HPM_P2
2021/06/19 00:00:51;;;;;;;9.32;4.80;;;13.80;69.70;;;;;;5104057;28;20045;-69
2021/06/19 00:03:19;;;;;;;6.15;4.40;;;13.80;69.70;;;;;;5103460;28;20048;-69
2021/06/19 00:05:48;;;;;;;5.05;3.80;;;13.70;69.80;;;;;;5076511;28;20055;-69
2021/06/19 00:08:16;;;;;;;5.88;4.13;;;13.70;69.90;;;;;;5075062;28;20052;-69
2021/06/19 00:10:44;;;;;;;8.80;4.05;;;13.60;69.90;;;;;;5096220;28;20048;-69
2021/06/19 00:13:12;;;;;;;5.63;3.90;;;13.70;69.90;;;;;;5102361;28;20043;-69
2021/06/19 00:15:40;;;;;;;6.25;4.15;;;13.70;69.90;;;;;;5074870;28;20040;-69
2021/06/19 00:18:09;;;;;;;4.78;3.97;;;13.70;69.90;;;;;;5091323;28;20048;-69
2021/06/19 00:20:37;;;;;;;6.10;4.57;;;13.70;69.80;;;;;;5082817;28;20055;-69
2021/06/19 00:23:06;;;;;;;7.82;5.03;;;13.60;69.90;;;;;;5084791;28;20062;-69
2021/06/19 00:25:35;;;;;;;7.18;5.50;;;13.60;69.90;;;;;;5081619;28;20060;-69
2021/06/19 00:28:03;;;;;;;8.75;5.30;;;13.50;69.90;;;;;;5103144;28;20054;-69
2021/06/19 00:30:31;;;;;;;11.70;5.25;;;13.50;69.90;;;;;;5102410;28;20054;-69
2021/06/19 00:33:17;;;;;;;5.82;5.03;;;13.50;70.00;;;;;;5099011;28;20067;-69
2021/06/19 00:35:48;;;;;;;8.00;5.20;;;13.50;70.10;;;;;;5108940;28;20046;-69
2021/06/19 00:38:16;;;;;;;7.22;4.95;;;13.40;70.10;;;;;;5053012;28;20044;-69
2021/06/19 00:40:44;;;;;;;6.70;5.07;;;13.30;70.20;;;;;;5075618;28;20051;-69
2021/06/19 00:43:12;;;;;;;8.93;5.15;;;13.30;70.30;;;;;;5100126;28;20502;-69
2021/06/19 00:45:40;;;;;;;7.10;4.32;;;13.30;70.30;;;;;;5103326;28;20051;-69
2021/06/19 00:48:12;;;;;;;8.15;3.88;;;13.30;70.40;;;;;;5110023;28;20044;-69
2021/06/19 00:50:41;;;;;;;8.38;4.40;;;13.30;70.50;;;;;;5079951;28;20055;-69
2021/06/19 00:53:09;;;;;;;4.35;3.95;;;13.30;70.40;;;;;;5088523;28;20063;-69
2021/06/19 00:55:38;;;;;;;5.93;4.05;;;13.30;70.40;;;;;;5079536;28;20048;-69
2021/06/19 00:58:07;;;;;;;5.97;3.83;;;13.30;70.40;;;;;;5079635;28;20060;-69
2021/06/19 01:00:35;;;;;;;5.18;3.78;;;13.30;70.40;;;;;;5105049;28;20048;-69
2021/06/19 01:03:04;;;;;;;5.60;3.60;;;13.30;70.40;;;;;;5100554;28;20052;-69
2021/06/19 01:05:32;;;;;;;4.32;3.90;;;13.30;70.50;;;;;;5098587;28;20040;-69
2021/06/19 01:08:00;;;;;;;8.55;4.30;;;13.20;70.60;;;;;;5083910;28;20063;-69
2021/06/19 01:10:30;;;;;;;4.57;4.05;;;13.30;70.70;;;;;;5096851;28;20056;-69
2021/06/19 01:13:00;;;;;;;8.27;4.60;;;13.30;70.70;;;;;;5106255;28;20044;-69
2021/06/19 01:15:30;;;;;;;7.47;4.43;;;13.30;70.80;;;;;;5093292;28;20052;-69
2021/06/19 01:17:58;;;;;;;8.68;4.18;;;13.30;70.90;;;;;;5085457;28;20043;-69
2021/06/19 01:20:26;;;;;;;5.22;4.28;;;13.30;70.80;;;;;;5100681;28;20067;-69
2021/06/19 01:22:56;;;;;;;4.38;3.88;;;13.30;70.80;;;;;;5098701;28;20044;-69
2021/06/19 01:25:27;;;;;;;8.75;4.20;;;13.30;70.80;;;;;;5105197;28;20043;-69
2021/06/19 01:27:56;;;;;;;5.07;4.30;;;13.30;70.90;;;;;;5096681;28;20048;-69
2021/06/19 01:30:28;;;;;;;4.57;4.07;;;13.30;70.90;;;;;;5080984;28;20062;-69
2021/06/19 01:32:56;;;;;;;5.20;3.70;;;13.30;71.00;;;;;;5104258;28;20055;-69
2021/06/19 01:35:26;;;;;;;6.03;4.03;;;13.30;71.00;;;;;;5095946;28;20386;-69
2021/06/19 01:37:56;;;;;;;5.38;4.30;;;13.30;71.10;;;;;;5082061;28;20051;-69
2021/06/19 01:40:30;;;;;;;4.82;4.05;;;13.30;71.10;;;;;;5089252;28;20044;-69
2021/06/19 01:42:59;;;;;;;7.28;4.25;;;13.30;71.10;;;;;;5074736;28;20052;-69
2021/06/19 01:45:33;;;;;;;4.80;4.18;;;13.30;71.10;;;;;;5099357;28;20056;-69
2021/06/19 01:48:06;;;;;;;4.47;3.97;;;13.30;71.10;;;;;;5099467;28;20481;-69
2021/06/19 01:50:35;;;;;;;6.72;3.85;;;13.30;71.10;;;;;;5103980;28;20056;-69
2021/06/19 01:53:05;;;;;;;6.13;4.50;;;13.30;71.10;;;;;;5101330;28;20378;-69
2021/06/19 01:55:34;;;;;;;6.85;4.60;;;13.30;71.20;;;;;;5106756;28;20445;-69
2021/06/19 01:58:02;;;;;;;6.13;4.63;;;13.30;71.20;;;;;;5110154;28;20044;-69
2021/06/19 02:00:35;;;;;;;6.75;4.40;;;13.30;71.30;;;;;;5084467;28;20478;-69
2021/06/19 02:03:06;;;;;;;5.47;4.40;;;13.30;71.30;;;;;;5106077;28;20055;-69
2021/06/19 02:05:35;;;;;;;6.25;4.68;;;13.30;71.30;;;;;;5096887;28;20441;-69
2021/06/19 02:08:07;;;;;;;4.97;4.30;;;13.30;71.30;;;;;;5096655;28;20056;-69
2021/06/19 02:10:39;;;;;;;6.38;4.53;;;13.30;71.40;;;;;;5101690;28;20059;-69
2021/06/19 02:13:08;;;;;;;7.20;4.43;;;13.20;71.40;;;;;;5089778;28;20453;-69
2021/06/19 02:15:37;;;;;;;7.82;4.72;;;13.20;71.50;;;;;;5094473;28;20462;-69
2021/06/19 02:18:06;;;;;;;5.93;4.22;;;13.20;71.60;;;;;;5091590;28;20066;-69
2021/06/19 02:20:35;;;;;;;4.90;4.40;;;13.10;71.60;;;;;;5106148;28;20040;-69
2021/06/19 02:23:03;;;;;;;8.32;4.75;;;13.10;71.70;;;;;;5103747;28;20047;-69
2021/06/19 02:25:33;;;;;;;9.57;4.95;;;13.00;71.70;;;;;;5087218;28;20048;-69
2021/06/19 02:28:02;;;;;;;5.40;4.25;;;13.00;71.70;;;;;;5095477;28;20381;-69
2021/06/19 02:30:33;;;;;;;5.97;5.10;;;13.00;71.80;;;;;;5096798;28;20048;-69
2021/06/19 02:33:02;;;;;;;7.13;5.30;;;13.00;71.80;;;;;;5104162;28;20048;-69
2021/06/19 02:35:33;;;;;;;6.32;4.80;;;12.90;71.70;;;;;;5102452;28;20059;-69
2021/06/19 02:38:02;;;;;;;8.07;4.60;;;12.90;71.70;;;;;;5103438;28;20063;-69
2021/06/19 02:40:31;;;;;;;7.35;4.38;;;12.90;71.80;;;;;;5095775;28;20064;-69
2021/06/19 02:42:59;;;;;;;5.80;4.65;;;12.80;71.80;;;;;;5109357;28;20039;-69
2021/06/19 02:45:27;;;;;;;7.55;5.20;;;12.80;71.90;;;;;;5097652;28;20068;-69
2021/06/19 02:47:58;;;;;;;7.10;4.90;;;12.80;72.00;;;;;;5101312;28;20062;-69
2021/06/19 02:50:30;;;;;;;7.50;5.05;;;12.70;72.00;;;;;;5102508;28;20055;-69
2021/06/19 02:53:00;;;;;;;6.57;4.80;;;12.70;72.00;;;;;;5110140;28;20405;-69
2021/06/19 02:55:32;;;;;;;5.95;4.63;;;12.70;72.10;;;;;;5104516;28;20048;-69
2021/06/19 02:58:00;;;;;;;7.35;5.30;;;12.70;72.10;;;;;;5096457;28;20040;-69
2021/06/19 03:00:29;;;;;;;9.52;5.28;;;12.60;72.20;;;;;;5083178;28;20047;-69
2021/06/19 03:02:57;;;;;;;6.97;5.18;;;12.60;72.10;;;;;;5096812;28;20049;-69
2021/06/19 03:05:29;;;;;;;7.63;5.20;;;12.60;72.10;;;;;;5097281;28;20056;-69
2021/06/19 03:07:58;;;;;;;6.40;5.18;;;12.60;72.00;;;;;;5066774;28;20043;-69
2021/06/19 03:10:37;;;;;;;9.60;5.05;;;12.60;72.00;;;;;;5085120;28;20051;-69
2021/06/19 03:13:05;;;;;;;10.20;5.60;;;12.50;72.00;;;;;;5093334;28;20051;-69
2021/06/19 03:15:33;;;;;;;11.43;5.32;;;12.60;71.90;;;;;;5098555;28;20056;-69
2021/06/19 03:18:02;;;;;;;5.75;5.18;;;12.50;71.90;;;;;;5095818;28;20404;-69
2021/06/19 03:20:31;;;;;;;7.72;5.45;;;12.50;71.90;;;;;;5096568;28;20526;-69
2021/06/19 03:23:02;;;;;;;7.72;6.28;;;12.40;71.80;;;;;;5100759;28;20458;-69
2021/06/19 03:25:29;;;;;;;8.68;6.03;;;12.40;71.80;;;;;;5068640;28;20063;-69
2021/06/19 03:28:00;;;;;;;9.07;5.93;;;12.40;71.80;;;;;;5079861;28;20039;-69
2021/06/19 03:30:29;;;;;;;7.25;6.18;;;12.40;71.90;;;;;;5099406;28;20060;-69
2021/06/19 03:32:57;;;;;;;8.88;5.85;;;12.30;71.90;;;;;;5107595;28;20056;-69
2021/06/19 03:35:26;;;;;;;10.65;5.32;;;12.30;71.90;;;;;;5104314;28;20051;-69
2021/06/19 03:37:55;;;;;;;5.60;5.05;;;12.30;71.80;;;;;;5095747;28;20044;-69
2021/06/19 03:40:25;;;;;;;9.48;5.80;;;12.30;71.70;;;;;;5094275;28;20351;-69
2021/06/19 03:42:54;;;;;;;6.63;4.93;;;12.30;71.60;;;;;;5099032;28;20055;-69
2021/06/19 03:45:31;;;;;;;6.53;4.75;;;12.30;71.60;;;;;;5103403;28;20052;-69
2021/06/19 03:47:59;;;;;;;6.18;4.88;;;12.30;71.70;;;;;;5074608;28;20071;-69
2021/06/19 03:50:28;;;;;;;6.20;5.10;;;12.30;71.60;;;;;;5084798;28;20059;-69
2021/06/19 03:52:58;;;;;;;7.53;5.15;;;12.30;71.50;;;;;;5078073;28;20056;-69
2021/06/19 03:55:27;;;;;;;4.80;4.30;;;12.30;71.50;;;;;;5055963;28;20048;-69
2021/06/19 03:57:56;;;;;;;5.28;4.75;;;12.30;71.50;;;;;;5074892;28;20055;-69
2021/06/19 04:00:27;;;;;;;6.43;5.28;;;12.40;71.50;;;;;;5056453;28;20036;-69
2021/06/19 04:02:56;;;;;;;6.43;5.00;;;12.40;71.50;;;;;;5067696;28;20126;-69
2021/06/19 04:05:24;;;;;;;8.23;5.57;;;12.40;71.40;;;;;;5077948;28;20055;-69
2021/06/19 04:07:53;;;;;;;16.75;5.82;;;12.40;71.50;;;;;;5074395;28;20064;-69
2021/06/19 04:10:22;;;;;;;7.13;5.90;;;12.40;71.50;;;;;;5085700;28;20442;-69
2021/06/19 04:12:51;;;;;;;8.27;6.18;;;12.50;71.50;;;;;;5056777;28;20064;-69
2021/06/19 04:15:19;;;;;;;9.27;6.13;;;12.50;71.60;;;;;;5073356;28;20378;-69
2021/06/19 04:17:48;;;;;;;9.80;6.00;;;12.50;71.70;;;;;;5065839;28;20367;-69
2021/06/19 04:20:17;;;;;;;6.70;5.53;;;12.40;71.80;;;;;;5073504;28;20051;-69
2021/06/19 04:22:46;;;;;;;6.38;5.65;;;12.50;71.90;;;;;;5065330;28;20045;-69
2021/06/19 04:25:16;;;;;;;9.20;5.30;;;12.50;72.00;;;;;;5071618;28;20059;-69
2021/06/19 04:27:50;;;;;;;8.85;5.80;;;12.50;72.10;;;;;;5073850;28;20391;-69
2021/06/19 04:30:21;;;;;;;11.18;6.00;;;12.50;72.10;;;;;;5075590;28;20075;-69
2021/06/19 04:32:50;;;;;;;10.13;6.22;;;12.50;72.10;;;;;;5080530;28;21288;-69
2021/06/19 04:35:19;;;;;;;7.50;5.80;;;12.50;72.20;;;;;;5088825;28;20047;-69
2021/06/19 04:37:48;;;;;;;9.25;6.38;;;12.50;72.20;;;;;;5046356;28;20041;-69
2021/06/19 04:43:06;;;;;;;8.63;5.80;;;12.50;72.30;;;;;;5062744;28;20075;-69
2021/06/19 04:45:35;;;;;;;6.60;5.72;;;12.50;72.40;;;;;;5074937;28;20057;-69
2021/06/19 04:48:05;;;;;;;6.25;5.47;;;12.50;72.60;;;;;;5082569;28;20382;-69
2021/06/19 04:50:36;;;;;;;7.38;5.85;;;12.50;72.80;;;;;;5092839;28;20056;-69
2021/06/19 04:53:06;;;;;;;7.03;5.90;;;12.50;72.90;;;;;;5102506;28;20055;-69
2021/06/19 04:55:34;;;;;;;7.95;6.50;;;12.60;72.90;;;;;;5094894;28;20052;-69
2021/06/19 04:58:03;;;;;;;6.78;6.07;;;12.60;72.90;;;;;;5094705;28;20063;-69
2021/06/19 05:00:33;;;;;;;6.97;6.28;;;12.60;72.90;;;;;;5100855;28;20040;-69
2021/06/19 05:03:02;;;;;;;6.90;6.07;;;12.60;72.90;;;;;;5094664;28;20051;-69
2021/06/19 05:05:30;;;;;;;7.65;6.32;;;12.70;72.90;;;;;;5104118;28;20059;-69
2021/06/19 05:07:58;;;;;;;8.70;6.50;;;12.70;73.00;;;;;;5094220;28;20044;-69
2021/06/19 05:10:26;;;;;;;9.07;6.32;;;12.70;73.00;;;;;;5107028;28;20059;-69
2021/06/19 05:12:54;;;;;;;7.90;5.85;;;12.70;73.10;;;;;;5098740;28;20067;-69
2021/06/19 05:15:26;;;;;;;8.93;6.35;;;12.80;73.10;;;;;;5106598;28;20044;-69
2021/06/19 05:17:57;;;;;;;9.05;5.65;;;12.80;73.20;;;;;;5079692;28;20063;-69
2021/06/19 05:20:27;;;;;;;6.35;5.60;;;12.80;73.30;;;;;;5092952;28;20398;-69
2021/06/19 05:22:56;;;;;;;8.02;6.10;;;12.80;73.40;;;;;;5100715;28;20052;-69
2021/06/19 05:25:24;;;;;;;9.32;6.53;;;12.90;73.50;;;;;;5060808;28;20054;-69
2021/06/19 05:27:52;;;;;;;9.20;6.78;;;13.00;73.40;;;;;;5092857;28;20048;-69
2021/06/19 05:30:20;;;;;;;11.23;7.22;;;13.00;73.40;;;;;;5107761;28;20059;-69
2021/06/19 05:32:48;;;;;;;7.25;6.50;;;13.00;73.50;;;;;;5104725;28;20063;-69
2021/06/19 05:35:16;;;;;;;11.05;6.63;;;13.00;73.60;;;;;;5094163;28;20055;-69
2021/06/19 05:37:44;;;;;;;8.15;6.47;;;13.00;73.70;;;;;;5107116;28;20060;-69
2021/06/19 05:40:12;;;;;;;11.68;6.88;;;13.10;73.80;;;;;;5078069;28;20074;-69
2021/06/19 05:42:41;;;;;;;10.85;6.53;;;13.00;74.00;;;;;;5100154;28;20390;-69
2021/06/19 05:45:10;;;;;;;7.68;6.32;;;13.10;74.10;;;;;;5095460;28;20048;-69
2021/06/19 05:47:37;;;;;;;8.63;6.70;;;13.10;74.20;;;;;;5104548;28;20358;-69
2021/06/19 05:50:08;;;;;;;9.98;7.10;;;13.10;74.30;;;;;;5097566;28;20055;-69
2021/06/19 05:52:36;;;;;;;13.00;6.82;;;13.00;74.40;;;;;;5095777;28;20048;-69
2021/06/19 05:55:06;;;;;;;10.60;7.00;;;13.10;74.50;;;;;;5106128;28;20383;-69
2021/06/19 05:57:34;;;;;;;10.88;6.50;;;13.10;74.60;;;;;;5080889;28;20047;-69
2021/06/19 06:00:05;;;;;;;10.00;6.72;;;13.10;74.70;;;;;;5104096;28;20425;-69
2021/06/19 06:02:44;;;;;;;7.75;6.20;;;13.20;74.80;;;;;;5104093;28;20048;-69
2021/06/19 06:05:13;;;;;;;9.50;6.10;;;13.20;74.90;;;;;;5097740;28;20044;-69
2021/06/19 06:07:41;;;;;;;10.25;5.65;;;13.30;74.90;;;;;;5078919;28;20311;-69
2021/06/19 06:10:09;;;;;;;9.38;6.03;;;13.30;74.90;;;;;;5110921;28;20461;-69
2021/06/19 06:12:37;;;;;;;8.98;5.68;;;13.30;74.80;;;;;;5103564;28;20048;-69
2021/06/19 06:15:06;;;;;;;8.48;5.63;;;13.40;74.80;;;;;;5100004;28;20407;-69
2021/06/19 06:17:35;;;;;;;8.10;4.90;;;13.50;74.80;;;;;;5103403;28;20052;-69
2021/06/19 06:20:04;;;;;;;8.27;5.00;;;13.60;74.80;;;;;;5079665;28;20036;-69
2021/06/19 06:22:33;;;;;;;6.78;3.45;;;13.70;74.60;;;;;;5097801;28;20055;-70
2021/06/19 06:25:01;;;;;;;6.18;3.88;;;13.70;74.40;;;;;;5101061;28;20055;-69
2021/06/19 06:27:29;;;;;;;7.72;4.03;;;13.80;74.20;;;;;;5103412;28;20048;-69
2021/06/19 06:29:57;;;;;;;4.30;3.42;;;13.70;74.10;;;;;;5099160;28;20052;-69
2021/06/19 06:32:26;;;;;;;7.40;3.30;;;13.80;74.10;;;;;;5104551;28;20052;-69
2021/06/19 06:34:53;;;;;;;11.52;4.45;;;13.80;73.90;;;;;;5097002;28;20051;-69
2021/06/19 06:37:21;;;;;;;7.05;2.63;;;13.80;73.60;;;;;;5106248;28;20379;-69
2021/06/19 06:39:54;;;;;;;5.28;2.45;;;13.80;73.60;;;;;;5104601;28;20488;-69
2021/06/19 06:42:21;;;;;;;9.60;2.55;;;13.80;73.40;;;;;;5099737;28;20055;-69
2021/06/19 06:44:49;;;;;;;6.05;2.17;;;13.80;73.30;;;;;;5098812;28;20048;-69
2021/06/19 06:47:17;;;;;;;7.68;2.40;;;13.80;73.20;;;;;;5106144;28;20051;-69
2021/06/19 06:49:45;;;;;;;9.57;2.85;;;13.80;73.10;;;;;;5101204;28;20050;-69
2021/06/19 06:52:14;;;;;;;6.22;2.58;;;13.80;73.10;;;;;;5102495;28;20393;-69
2021/06/19 06:54:42;;;;;;;7.45;2.45;;;13.80;73.00;;;;;;5095511;28;20048;-69
2021/06/19 06:57:10;;;;;;;4.57;2.92;;;13.80;73.00;;;;;;5099037;28;20048;-69
2021/06/19 06:59:39;;;;;;;5.55;2.47;;;13.90;73.00;;;;;;5102651;28;20066;-69
2021/06/19 07:02:07;;;;;;;5.68;2.55;;;14.00;72.90;;;;;;5078170;28;20058;-69
2021/06/19 07:04:34;;;;;;;7.93;2.00;;;14.00;72.80;;;;;;5105995;28;20047;-69
2021/06/19 07:07:03;;;;;;;5.32;2.10;;;14.00;72.70;;;;;;5104068;28;20056;-69
2021/06/19 07:09:30;;;;;;;5.75;2.20;;;14.10;72.50;;;;;;5099811;28;20382;-69
2021/06/19 07:11:59;;;;;;;5.57;2.60;;;14.20;72.20;;;;;;5101095;28;20059;-69
2021/06/19 07:14:27;;;;;;;6.55;2.30;;;14.20;72.10;;;;;;5100246;28;20055;-69
2021/06/19 07:16:55;;;;;;;6.28;2.40;;;14.20;72.10;;;;;;5110515;28;20137;-69
2021/06/19 07:19:23;;;;;;;5.95;2.13;;;14.30;72.10;;;;;;5102782;28;20063;-69
2021/06/19 07:21:51;;;;;;;4.25;2.05;;;14.30;71.90;;;;;;5095172;28;20047;-69
2021/06/19 07:24:20;;;;;;;8.05;2.10;;;14.30;71.60;;;;;;5089123;28;20066;-69
2021/06/19 07:26:48;;;;;;;6.65;1.80;;;14.30;71.40;;;;;;5099508;28;20118;-69
2021/06/19 07:29:16;;;;;;;5.82;2.08;;;14.40;71.40;;;;;;5100350;28;20055;-69
2021/06/19 07:31:45;;;;;;;3.40;1.65;;;14.30;71.30;;;;;;5111725;28;20056;-69
2021/06/19 07:34:15;;;;;;;4.35;1.88;;;14.40;71.10;;;;;;5085627;28;20492;-69
2021/06/19 07:36:45;;;;;;;3.88;1.70;;;14.40;71.00;;;;;;5102480;28;20052;-70
2021/06/19 07:39:14;;;;;;;3.72;1.80;;;14.40;70.90;;;;;;5078550;28;20039;-69
2021/06/19 07:41:42;;;;;;;3.25;1.75;;;14.40;70.90;;;;;;5100210;28;20385;-69
2021/06/19 07:44:10;;;;;;;5.22;2.00;;;14.50;70.90;;;;;;5112271;28;20480;-69
2021/06/19 07:46:38;;;;;;;4.07;1.80;;;14.50;70.90;;;;;;5100213;28;20048;-69
2021/06/19 07:49:06;;;;;;;5.13;1.65;;;14.60;71.00;;;;;;5090184;28;20055;-69
2021/06/19 07:51:34;;;;;;;3.25;1.40;;;14.70;70.90;;;;;;5095620;28;20051;-69
2021/06/19 07:54:02;;;;;;;2.80;1.52;;;14.80;70.40;;;;;;5094678;28;20048;-69
2021/06/19 07:56:30;;;;;;;4.00;2.17;;;14.90;70.10;;;;;;5099573;28;20059;-69
2021/06/19 07:58:57;;;;;;;4.35;1.90;;;15.00;69.90;;;;;;5099401;28;20052;-69
2021/06/19 08:01:25;;;;;;;3.83;2.08;;;15.10;69.80;;;;;;5099610;28;20394;-69
2021/06/19 08:03:53;;;;;;;3.75;2.35;;;15.10;69.80;;;;;;5099350;28;20044;-69
2021/06/19 08:06:22;;;;;;;3.75;1.85;;;15.10;69.60;;;;;;5113249;28;20044;-69
2021/06/19 08:08:50;;;;;;;5.68;2.35;;;15.10;69.30;;;;;;5105413;28;20047;-69
2021/06/19 08:11:17;;;;;;;6.22;1.83;;;15.00;69.30;;;;;;5094932;28;20485;-69
2021/06/19 08:13:45;;;;;;;5.78;1.90;;;15.00;69.10;;;;;;5104968;28;20052;-69
2021/06/19 08:16:16;;;;;;;3.13;1.80;;;15.00;69.20;;;;;;5095080;28;20044;-69
2021/06/19 08:18:47;;;;;;;4.60;1.92;;;15.00;69.30;;;;;;5089983;28;20044;-69
2021/06/19 08:21:16;;;;;;;3.92;2.40;;;15.00;69.50;;;;;;5099037;28;20382;-69
2021/06/19 08:23:44;;;;;;;5.78;2.25;;;15.00;69.40;;;;;;5107137;28;20044;-69
2021/06/19 08:26:12;;;;;;;4.78;1.55;;;15.00;69.40;;;;;;5099298;28;20051;-69
2021/06/19 08:28:41;;;;;;;4.32;1.70;;;15.00;69.30;;;;;;5107451;28;20048;-69
2021/06/19 08:31:08;;;;;;;3.50;1.13;;;15.00;69.20;;;;;;5097029;28;20052;-69
2021/06/19 08:33:36;;;;;;;6.88;1.40;;;15.10;69.00;;;;;;5108202;28;20051;-69
2021/06/19 08:36:05;;;;;;;3.88;1.20;;;15.20;68.80;;;;;;5113620;28;20054;-69
2021/06/19 08:38:32;;;;;;;2.92;1.60;;;15.30;68.40;;;;;;5097648;28;20052;-69
2021/06/19 08:41:01;;;;;;;7.20;1.75;;;15.30;68.00;;;;;;5105077;28;20059;-69
2021/06/19 08:43:29;;;;;;;3.30;1.20;;;15.30;67.80;;;;;;5106866;28;20051;-69
2021/06/19 08:45:58;;;;;;;2.42;0.93;;;15.40;67.50;;;;;;5097151;28;20048;-69
2021/06/19 08:48:26;;;;;;;3.20;1.35;;;15.50;67.30;;;;;;5080307;28;20410;-69
2021/06/19 08:50:54;;;;;;;3.53;1.08;;;15.50;67.00;;;;;;5099921;28;20386;-69
2021/06/19 08:53:22;;;;;;;2.35;1.05;;;15.60;66.80;;;;;;5085337;28;20059;-69
2021/06/19 08:56:12;;;;;;;2.25;0.73;;;15.70;66.70;;;;;;5095380;28;20054;-69
2021/06/19 08:58:41;;;;;;;5.70;0.80;;;15.70;66.60;;;;;;5107324;28;20051;-69
2021/06/19 09:01:09;;;;;;;4.13;0.93;;;15.80;66.30;;;;;;5105029;28;20481;-69
2021/06/19 09:03:37;;;;;;;3.25;0.73;;;15.80;66.00;;;;;;5101085;28;20055;-70
2021/06/19 09:06:24;;;;;;;3.13;1.17;;;15.90;65.60;;;;;;5104953;28;20048;-69
2021/06/19 09:09:17;;;;;;;2.63;0.95;;;15.90;65.30;;;;;;5082964;28;20036;-70
2021/06/19 09:11:54;;;;;;;4.68;1.20;;;15.90;65.30;;;;;;5096916;28;20056;-69
2021/06/19 09:14:25;;;;;;;3.20;0.80;;;15.90;65.30;;;;;;5095432;28;20047;-69
2021/06/19 09:17:07;;;;;;;2.42;0.70;;;16.00;65.30;;;;;;5097708;28;20055;-69
2021/06/19 09:19:38;;;;;;;2.90;1.08;;;15.90;65.20;;;;;;5083946;28;20040;-69
2021/06/19 09:22:21;;;;;;;3.13;1.08;;;15.90;65.30;;;;;;5077543;28;20451;-69
2021/06/19 09:24:55;;;;;;;3.83;1.20;;;16.00;65.30;;;;;;5089857;28;20474;-69
2021/06/19 09:27:36;;;;;;;3.80;0.98;;;16.00;65.20;;;;;;5083735;28;20052;-69
2021/06/19 09:30:24;;;;;;;3.72;1.10;;;16.10;65.10;;;;;;5076949;28;20048;-69
2021/06/19 09:32:55;;;;;;;2.95;0.82;;;16.10;65.00;;;;;;5066379;28;20052;-69
2021/06/19 09:35:26;;;;;;;2.20;0.90;;;16.10;65.10;;;;;;5089101;28;20048;-71
2021/06/19 09:38:15;;;;;;;2.08;0.70;;;16.10;65.10;;;;;;5076813;28;20070;-69
2021/06/19 09:40:48;;;;;;;5.18;1.35;;;16.20;65.20;;;;;;5076433;28;20048;-70
2021/06/19 09:43:24;;;;;;;3.92;0.95;;;16.20;65.30;;;;;;5097530;28;20044;-69
2021/06/19 09:46:08;;;;;;;2.55;0.90;;;16.30;65.10;;;;;;5098443;28;20059;-68
2021/06/19 09:48:39;;;;;;;2.05;0.73;;;16.30;64.80;;;;;;5091179;28;20054;-69
2021/06/19 09:51:18;;;;;;;0.88;0.50;;;16.40;64.70;;;;;;5074991;28;20382;-69
2021/06/19 09:53:51;;;;;;;2.35;0.60;;;16.50;64.10;;;;;;5098656;28;20051;-68
2021/06/19 09:56:21;;;;;;;1.60;0.80;;;16.70;62.90;;;;;;5087644;28;20053;-69
2021/06/19 09:58:53;;;;;;;5.95;0.70;;;16.80;62.10;;;;;;5066981;28;20049;-69
2021/06/19 10:01:39;;;;;;;1.33;0.70;;;16.80;61.50;;;;;;5062344;28;20041;-70
2021/06/19 10:04:09;;;;;;;1.52;0.70;;;16.80;61.00;;;;;;5085694;28;20047;-70
2021/06/19 10:06:37;;;;;;;1.90;0.80;;;16.90;61.10;;;;;;5099587;28;20051;-70
2021/06/19 10:09:06;;;;;;;2.63;0.88;;;17.00;61.20;;;;;;5103897;28;20480;-69
2021/06/19 10:11:34;;;;;;;2.40;0.68;;;17.10;61.00;;;;;;5076813;28;20055;-69
2021/06/19 10:14:04;;;;;;;2.60;0.90;;;17.10;60.80;;;;;;5095873;28;20474;-70
2021/06/19 10:16:32;;;;;;;8.27;1.02;;;17.10;60.70;;;;;;5059954;28;20053;-69
2021/06/19 10:19:01;;;;;;;3.38;0.88;;;17.10;60.30;;;;;;5078656;28;20473;-70
2021/06/19 10:21:29;;;;;;;5.20;1.00;;;17.10;60.20;;;;;;5094659;28;20067;-70
2021/06/19 10:23:58;;;;;;;2.63;0.80;;;17.10;60.10;;;;;;5094927;28;20051;-68
2021/06/19 10:26:26;;;;;;;1.80;0.77;;;17.20;60.10;;;;;;5057126;28;20048;-70
2021/06/19 10:28:59;;;;;;;3.65;0.85;;;17.20;60.10;;;;;;5092286;28;20040;-68
2021/06/19 10:31:27;;;;;;;2.92;0.93;;;17.20;60.20;;;;;;5093813;28;20382;-69
2021/06/19 10:33:55;;;;;;;2.13;0.95;;;17.30;60.30;;;;;;5075942;28;20063;-70
2021/06/19 10:36:37;;;;;;;5.25;0.98;;;17.30;60.10;;;;;;5057023;28;20110;-70
2021/06/19 10:39:06;;;;;;;2.85;1.20;;;17.30;59.80;;;;;;5095174;28;20047;-71
2021/06/19 10:41:50;;;;;;;5.38;1.10;;;17.30;59.70;;;;;;5076883;28;20382;-70
2021/06/19 10:44:52;;;;;;;2.85;0.95;;;17.30;59.50;;;;;;5095858;28;20066;-70
2021/06/19 10:47:30;;;;;;;1.73;0.93;;;17.40;59.50;;;;;;5075057;28;20048;-69
2021/06/19 10:50:00;;;;;;;2.75;0.70;;;17.40;59.50;;;;;;5086717;28;20390;-68
2021/06/19 10:52:31;;;;;;;2.42;0.77;;;17.50;59.10;;;;;;5089896;28;20063;-68
2021/06/19 10:55:08;;;;;;;2.05;0.95;;;17.60;59.10;;;;;;5043766;28;20407;-70
2021/06/19 10:57:54;;;;;;;1.65;1.08;;;17.80;58.80;;;;;;5072545;28;20045;-70
2021/06/19 11:00:25;;;;;;;1.77;0.95;;;17.90;58.40;;;;;;5082515;28;20035;-69
2021/06/19 11:02:56;;;;;;;3.72;1.10;;;18.00;58.20;;;;;;5076335;28;20036;-70
2021/06/19 11:05:43;;;;;;;4.28;0.90;;;18.00;58.00;;;;;;5068301;28;20040;-70
2021/06/19 11:08:13;;;;;;;1.98;0.88;;;18.10;57.70;;;;;;5067424;28;20051;-71
2021/06/19 11:13:30;;;;;;;1.88;0.80;;;18.40;57.40;;;;;;5078192;28;20052;-70
2021/06/19 11:16:03;;;;;;;1.73;0.80;;;18.70;56.80;;;;;;5039979;28;20052;-71
2021/06/19 11:18:50;;;;;;;1.15;0.70;;;18.80;56.20;;;;;;5089085;28;20045;-70
2021/06/19 11:21:32;;;;;;;2.58;0.90;;;18.90;55.20;;;;;;5088657;28;20044;-70
2021/06/19 11:24:00;;;;;;;2.90;1.08;;;19.00;55.40;;;;;;5085129;28;20749;-68
2021/06/19 11:29:38;;;;;;;6.63;1.08;;;19.10;54.60;;;;;;5089265;28;20374;-68
2021/06/19 11:32:26;;;;;;;5.53;1.17;;;19.10;54.50;;;;;;5084667;28;20477;-70
2021/06/19 11:34:59;;;;;;;2.55;1.13;;;19.10;54.30;;;;;;5087646;28;20051;-69
2021/06/19 11:37:56;;;;;;;1.45;1.00;;;19.10;54.40;;;;;;5089008;28;20053;-69
2021/06/19 11:40:31;;;;;;;2.83;0.90;;;19.20;54.10;;;;;;5089432;28;20047;-72
2021/06/19 11:43:00;;;;;;;3.25;0.75;;;19.30;54.00;;;;;;5052493;28;20037;-70
2021/06/19 11:45:28;;;;;;;2.90;0.95;;;19.30;53.60;;;;;;5087604;28;20063;-69
2021/06/19 11:48:18;;;;;;;6.07;0.80;;;19.30;53.20;;;;;;5089999;28;20477;-69
2021/06/19 11:51:03;;;;;;;2.20;1.00;;;19.40;52.90;;;;;;5091114;28;20040;-71
2021/06/19 11:53:38;;;;;;;3.20;0.90;;;19.30;52.90;;;;;;5076055;28;20048;-70
2021/06/19 11:56:06;;;;;;;3.28;0.75;;;19.40;53.00;;;;;;5067636;28;20072;-72
2021/06/19 11:59:08;;;;;;;1.95;0.73;;;19.40;52.90;;;;;;5073438;28;20455;-70
2021/06/19 12:01:38;;;;;;;5.95;1.08;;;19.40;52.50;;;;;;5024788;28;20052;-71
2021/06/19 12:04:07;;;;;;;2.20;1.10;;;19.40;52.20;;;;;;5077576;28;20084;-71
2021/06/19 12:06:39;;;;;;;1.45;0.80;;;19.40;52.50;;;;;;5089808;28;20525;-70
2021/06/19 12:09:25;;;;;;;1.45;0.90;;;19.50;52.50;;;;;;5092154;28;20044;-69
2021/06/19 12:12:05;;;;;;;2.42;1.10;;;19.60;52.30;;;;;;5092160;28;20063;-70
2021/06/19 12:14:36;;;;;;;5.05;1.15;;;19.60;52.50;;;;;;5057626;28;20052;-70
2021/06/19 12:17:10;;;;;;;1.65;0.95;;;19.50;52.40;;;;;;5086913;28;20049;-70
2021/06/19 12:19:41;;;;;;;2.50;0.95;;;19.50;52.30;;;;;;5071561;28;20055;-71
2021/06/19 12:22:11;;;;;;;1.95;0.90;;;19.40;52.40;;;;;;5100005;28;20050;-71
2021/06/19 12:24:41;;;;;;;1.73;0.75;;;19.40;52.60;;;;;;5089828;28;20051;-70
2021/06/19 12:27:20;;;;;;;2.03;0.90;;;19.40;52.60;;;;;;5081687;28;20044;-71
2021/06/19 12:29:54;;;;;;;4.10;0.90;;;19.40;52.40;;;;;;5079120;28;20063;-69
2021/06/19 12:32:25;;;;;;;4.55;1.10;;;19.30;52.30;;;;;;5078873;28;20045;-70
2021/06/19 12:34:56;;;;;;;3.58;1.20;;;19.30;52.20;;;;;;5077853;28;20484;-68
2021/06/19 12:37:30;;;;;;;2.95;1.27;;;19.30;52.50;;;;;;5066771;28;20056;-71
2021/06/19 12:40:00;;;;;;;1.88;1.10;;;19.30;52.80;;;;;;5074280;28;20052;-71
2021/06/19 12:42:38;;;;;;;3.95;1.10;;;19.40;52.80;;;;;;5044810;28;20382;-69
2021/06/19 12:45:12;;;;;;;5.03;1.30;;;19.50;52.70;;;;;;5083557;28;20060;-70
2021/06/19 12:47:44;;;;;;;4.03;1.20;;;19.50;52.40;;;;;;5082390;28;20056;-70
2021/06/19 12:50:21;;;;;;;1.30;1.08;;;19.60;52.10;;;;;;5073971;28;20052;-70
2021/06/19 12:53:04;;;;;;;3.10;1.13;;;19.70;51.40;;;;;;5077654;28;20064;-69
2021/06/19 12:55:36;;;;;;;1.85;0.95;;;19.60;50.80;;;;;;5074883;28;20056;-70
2021/06/19 12:58:18;;;;;;;3.50;1.27;;;19.50;50.40;;;;;;5074893;28;20568;-69
2021/06/19 13:00:54;;;;;;;3.42;1.10;;;19.50;51.20;;;;;;5088411;28;20063;-69
2021/06/19 13:03:48;;;;;;;2.35;1.08;;;19.60;51.40;;;;;;5085469;28;20036;-69
2021/06/19 13:06:45;;;;;;;3.95;1.20;;;19.70;51.50;;;;;;5070910;28;20102;-71
2021/06/19 13:09:15;;;;;;;6.00;1.80;;;19.90;51.30;;;;;;5092584;28;20186;-71
2021/06/19 13:11:44;;;;;;;3.25;1.33;;;20.00;50.90;;;;;;5046653;28;20386;-69
2021/06/19 13:14:12;;;;;;;3.25;1.27;;;20.00;51.10;;;;;;5070356;28;20469;-71